Time;durP1;ratioP1;P1;durP2;ratioP2;P2;SDS_P1;SDS_P2;PMS_P1;PMS_P2;Temp;Humidity;BMP_temperature;BMP_pressure;BME280_temperature;BME280_humidity;BME280_pressure;Samples;Min_cycle;Max_cycle;Signal;HPM_P1;HPM_P2
2023/08/01 00:02:19;;;;;;;13.55;3.80;;;;;;;;;;5015458;28;20065;-64
2023/08/01 00:06:00;;;;;;;13.20;3.70;;;;;;;;;;5014581;28;20042;-65
2023/08/01 00:09:40;;;;;;;14.75;4.40;;;;;;;;;;5015878;28;20060;-65
2023/08/01 00:13:20;;;;;;;12.73;3.83;;;;;;;;;;5015819;28;20420;-66
2023/08/01 00:17:01;;;;;;;15.10;3.92;;;;;;;;;;5015092;28;20041;-66
2023/08/01 00:20:41;;;;;;;12.77;3.88;;;;;;;;;;5013082;28;20054;-65
2023/08/01 00:24:21;;;;;;;11.02;3.78;;;;;;;;;;5017513;28;20320;-64
2023/08/01 00:28:02;;;;;;;11.52;3.67;;;;;;;;;;5013913;28;20067;-64
2023/08/01 00:31:16;;;;;;;13.80;3.70;;;;;;;;;;5014062;28;20051;-65
2023/08/01 00:34:22;;;;;;;12.27;3.25;;;;;;;;;;5014230;28;20045;-65
2023/08/01 00:38:02;;;;;;;10.75;3.40;;;;;;;;;;5012253;28;20041;-66
2023/08/01 00:41:42;;;;;;;11.00;3.63;;;;;;;;;;5014694;28;20069;-64
2023/08/01 00:45:24;;;;;;;9.82;3.72;;;;;;;;;;5014733;28;20067;-65
2023/08/01 00:49:03;;;;;;;9.88;3.45;;;;;;;;;;5014553;28;20041;-66
2023/08/01 00:52:44;;;;;;;17.50;3.83;;;;;;;;;;5017802;28;20034;-66
2023/08/01 00:56:24;;;;;;;7.97;3.80;;;;;;;;;;5017892;28;20118;-63
2023/08/01 00:59:41;;;;;;;12.48;4.00;;;;;;;;;;5017113;28;20049;-65
2023/08/01 01:02:47;;;;;;;9.18;3.83;;;;;;;;;;5017811;28;20065;-66
2023/08/01 01:06:33;;;;;;;12.73;3.50;;;;;;;;;;5017966;28;20037;-65
2023/08/01 01:10:14;;;;;;;13.95;4.00;;;;;;;;;;5017313;28;20054;-64
2023/08/01 01:13:54;;;;;;;7.93;3.50;;;;;;;;;;5017288;28;20046;-65
2023/08/01 01:17:34;;;;;;;7.97;3.83;;;;;;;;;;5016519;28;20128;-64
2023/08/01 01:21:15;;;;;;;11.38;3.63;;;;;;;;;;5017400;28;20053;-64
2023/08/01 01:24:55;;;;;;;16.13;3.95;;;;;;;;;;5020143;28;20493;-64
2023/08/01 01:28:35;;;;;;;12.00;3.40;;;;;;;;;;5017357;28;20050;-64
2023/08/01 01:32:16;;;;;;;11.38;3.83;;;;;;;;;;5017330;28;20092;-64
2023/08/01 01:35:56;;;;;;;11.05;3.75;;;;;;;;;;5016228;28;20419;-64
2023/08/01 01:39:36;;;;;;;10.27;3.30;;;;;;;;;;5018450;28;20085;-67
2023/08/01 01:43:17;;;;;;;12.75;3.90;;;;;;;;;;5017551;28;20045;-64
2023/08/01 01:46:57;;;;;;;16.88;3.65;;;;;;;;;;5016920;28;20052;-65
2023/08/01 01:50:38;;;;;;;12.88;3.72;;;;;;;;;;5017730;28;20077;-66
2023/08/01 01:54:18;;;;;;;10.23;3.92;;;;;;;;;;5015461;28;20120;-65
2023/08/01 01:57:58;;;;;;;13.07;4.00;;;;;;;;;;5017576;28;20060;-64
2023/08/01 02:01:39;;;;;;;14.80;3.90;;;;;;;;;;5019401;28;20053;-64
2023/08/01 02:05:19;;;;;;;13.77;3.50;;;;;;;;;;5016177;28;20041;-65
2023/08/01 02:08:59;;;;;;;11.90;3.70;;;;;;;;;;5019868;28;20057;-65
2023/08/01 02:12:40;;;;;;;15.95;3.80;;;;;;;;;;5019126;28;20540;-65
2023/08/01 02:16:20;;;;;;;12.40;3.83;;;;;;;;;;5015811;28;20049;-66
2023/08/01 02:20:00;;;;;;;9.70;3.53;;;;;;;;;;5019272;28;20052;-65
2023/08/01 02:23:41;;;;;;;13.65;4.22;;;;;;;;;;5021518;28;20037;-64
2023/08/01 02:27:21;;;;;;;17.73;4.35;;;;;;;;;;5016299;28;20064;-67
2023/08/01 02:31:01;;;;;;;14.13;4.57;;;;;;;;;;5025538;28;20117;-65
2023/08/01 02:34:42;;;;;;;17.02;5.90;;;;;;;;;;5019519;28;20054;-65
2023/08/01 02:38:22;;;;;;;18.45;5.05;;;;;;;;;;5023534;28;20045;-65
2023/08/01 02:42:02;;;;;;;16.55;5.72;;;;;;;;;;5014034;28;20050;-65
2023/08/01 02:45:43;;;;;;;16.52;6.18;;;;;;;;;;5024409;28;20513;-64
2023/08/01 02:49:23;;;;;;;12.30;5.13;;;;;;;;;;5021844;28;20061;-64
2023/08/01 02:53:04;;;;;;;14.35;5.63;;;;;;;;;;5024436;28;20061;-64
2023/08/01 02:56:44;;;;;;;13.68;5.00;;;;;;;;;;5024016;28;20133;-63
2023/08/01 03:00:25;;;;;;;14.00;5.18;;;;;;;;;;5023254;28;20056;-66
2023/08/01 03:04:06;;;;;;;11.60;4.63;;;;;;;;;;5021711;28;20132;-65
2023/08/01 03:07:45;;;;;;;16.55;4.72;;;;;;;;;;5021423;28;20073;-64
2023/08/01 03:11:26;;;;;;;14.27;5.30;;;;;;;;;;5023515;28;20633;-66
2023/08/01 03:15:08;;;;;;;13.65;4.85;;;;;;;;;;5018747;28;20049;-64
2023/08/01 03:18:35;;;;;;;18.40;5.47;;;;;;;;;;5023024;28;20068;-65
2023/08/01 03:21:41;;;;;;;15.52;5.57;;;;;;;;;;5027107;28;20080;-65
2023/08/01 03:25:22;;;;;;;14.38;5.05;;;;;;;;;;5019735;28;20048;-66
2023/08/01 03:29:02;;;;;;;18.90;6.20;;;;;;;;;;5020477;28;20507;-65
2023/08/01 03:32:43;;;;;;;17.55;6.20;;;;;;;;;;5015034;28;20050;-64
2023/08/01 03:36:23;;;;;;;14.25;5.30;;;;;;;;;;5024559;28;20045;-65
2023/08/01 03:40:03;;;;;;;16.23;6.07;;;;;;;;;;5019617;28;20092;-65
2023/08/01 03:43:44;;;;;;;11.07;5.20;;;;;;;;;;5014622;28;20045;-65
2023/08/01 03:47:24;;;;;;;16.88;5.95;;;;;;;;;;5023017;28;20793;-67
2023/08/01 03:51:05;;;;;;;9.40;5.05;;;;;;;;;;5019414;28;20057;-68
2023/08/01 03:54:45;;;;;;;12.88;5.50;;;;;;;;;;5020843;28;20037;-66
2023/08/01 03:58:25;;;;;;;19.67;5.53;;;;;;;;;;5018591;28;20056;-66
2023/08/01 04:02:06;;;;;;;15.70;5.35;;;;;;;;;;5021890;28;20049;-65
2023/08/01 04:05:46;;;;;;;13.77;5.45;;;;;;;;;;5016136;28;20048;-65
2023/08/01 04:09:27;;;;;;;12.60;5.38;;;;;;;;;;5015368;28;20041;-66
2023/08/01 04:13:07;;;;;;;14.88;5.13;;;;;;;;;;5026658;28;20077;-66
2023/08/01 04:16:47;;;;;;;13.90;5.60;;;;;;;;;;5026455;28;20057;-63
2023/08/01 04:20:28;;;;;;;12.05;5.03;;;;;;;;;;5019692;28;20049;-65
2023/08/01 04:24:08;;;;;;;20.92;5.85;;;;;;;;;;5019172;28;20042;-65
2023/08/01 04:27:49;;;;;;;13.93;5.63;;;;;;;;;;5026187;28;20064;-64
2023/08/01 04:31:29;;;;;;;14.05;5.30;;;;;;;;;;5014618;28;20511;-64
2023/08/01 04:35:09;;;;;;;14.77;5.47;;;;;;;;;;5023853;28;20547;-64
2023/08/01 04:38:50;;;;;;;18.35;5.45;;;;;;;;;;5017216;28;20494;-65
2023/08/01 04:42:30;;;;;;;8.43;5.38;;;;;;;;;;5019680;28;20042;-64
2023/08/01 04:46:10;;;;;;;14.48;5.72;;;;;;;;;;5020435;28;20053;-65
2023/08/01 04:49:51;;;;;;;16.77;6.20;;;;;;;;;;5026920;28;20065;-64
2023/08/01 04:53:31;;;;;;;17.00;6.68;;;;;;;;;;5015391;28;20119;-64
2023/08/01 04:57:12;;;;;;;22.58;7.00;;;;;;;;;;5017019;28;20766;-65
2023/08/01 05:00:52;;;;;;;14.15;6.55;;;;;;;;;;5017574;28;20132;-66
2023/08/01 05:04:32;;;;;;;19.45;6.18;;;;;;;;;;5018634;28;20129;-65
2023/08/01 05:07:33;;;;;;;13.52;6.57;;;;;;;;;;5022396;28;20056;-64
2023/08/01 05:10:39;;;;;;;10.95;6.32;;;;;;;;;;5017886;28;20046;-64
2023/08/01 05:14:19;;;;;;;12.48;6.25;;;;;;;;;;5025127;28;20052;-64
2023/08/01 05:18:00;;;;;;;19.73;6.95;;;;;;;;;;5021514;28;20056;-66
2023/08/01 05:21:40;;;;;;;13.75;6.75;;;;;;;;;;5014573;28;20108;-64
2023/08/01 05:25:20;;;;;;;15.82;6.32;;;;;;;;;;5020028;28;20503;-64
2023/08/01 05:29:01;;;;;;;20.13;6.55;;;;;;;;;;5024334;28;20057;-66
2023/08/01 05:32:43;;;;;;;22.75;7.63;;;;;;;;;;5017341;28;20172;-68
2023/08/01 05:36:22;;;;;;;16.00;6.45;;;;;;;;;;5012415;28;20046;-65
2023/08/01 05:40:02;;;;;;;13.32;6.35;;;;;;;;;;5021641;28;20418;-65
2023/08/01 05:43:42;;;;;;;14.85;6.85;;;;;;;;;;5022761;28;20041;-65
2023/08/01 05:46:43;;;;;;;18.30;6.75;;;;;;;;;;5017948;28;20062;-65
2023/08/01 05:49:09;;;;;;;15.68;7.28;;;;;;;;;;5030427;28;20045;-64
2023/08/01 05:52:15;;;;;;;12.77;6.40;;;;;;;;;;5015437;28;20037;-64
2023/08/01 05:55:55;;;;;;;18.35;6.95;;;;;;;;;;5025142;28;20617;-64
2023/08/01 05:58:56;;;;;;;15.50;6.80;;;;;;;;;;5019204;28;20041;-65
2023/08/01 06:02:02;;;;;;;15.02;5.97;;;;;;;;;;5019526;28;20443;-66
2023/08/01 06:05:42;;;;;;;13.15;6.53;;;;;;;;;;5020340;28;20049;-66
2023/08/01 06:09:22;;;;;;;11.55;6.18;;;;;;;;;;5028015;28;20038;-64
2023/08/01 06:13:03;;;;;;;20.65;6.60;;;;;;;;;;5025230;28;20049;-64
2023/08/01 06:16:43;;;;;;;11.63;6.07;;;;;;;;;;5023686;28;20487;-65
2023/08/01 06:20:24;;;;;;;17.48;6.97;;;;;;;;;;5024625;28;20057;-64
2023/08/01 06:24:04;;;;;;;16.83;6.82;;;;;;;;;;5022971;28;20052;-66
2023/08/01 06:27:45;;;;;;;12.63;6.57;;;;;;;;;;5024780;28;20053;-64
2023/08/01 06:31:25;;;;;;;11.30;6.20;;;;;;;;;;5016190;28;20045;-64
2023/08/01 06:35:05;;;;;;;16.55;5.78;;;;;;;;;;5024634;28;20170;-64
2023/08/01 06:38:46;;;;;;;17.83;6.60;;;;;;;;;;5024767;28;20051;-66
2023/08/01 06:41:46;;;;;;;18.08;6.70;;;;;;;;;;5022479;28;20041;-64
2023/08/01 06:44:12;;;;;;;21.65;6.82;;;;;;;;;;5019675;28;20129;-65
2023/08/01 06:46:38;;;;;;;14.60;6.43;;;;;;;;;;5024963;28;20133;-69
2023/08/01 06:49:04;;;;;;;16.73;6.43;;;;;;;;;;5023874;28;20406;-64
2023/08/01 06:51:30;;;;;;;14.48;6.20;;;;;;;;;;5025647;28;20045;-65
2023/08/01 06:53:56;;;;;;;14.75;6.10;;;;;;;;;;5024770;28;20064;-65
2023/08/01 06:56:22;;;;;;;19.95;6.20;;;;;;;;;;5023592;28;20046;-69
2023/08/01 06:58:48;;;;;;;14.05;5.43;;;;;;;;;;5016806;28;20513;-66
2023/08/01 07:01:14;;;;;;;17.27;5.90;;;;;;;;;;5021228;28;20133;-65
2023/08/01 07:03:40;;;;;;;14.02;6.20;;;;;;;;;;5027009;28;20065;-65
2023/08/01 07:06:07;;;;;;;15.93;6.28;;;;;;;;;;5017315;28;20066;-67
2023/08/01 07:08:33;;;;;;;16.58;5.30;;;;;;;;;;5018508;28;21192;-66
2023/08/01 07:10:59;;;;;;;10.32;4.68;;;;;;;;;;5020453;28;20054;-66
2023/08/01 07:13:26;;;;;;;11.48;4.90;;;;;;;;;;5015812;28;20050;-64
2023/08/01 07:16:31;;;;;;;10.55;5.30;;;;;;;;;;5026296;28;20124;-66
2023/08/01 07:20:11;;;;;;;11.40;4.93;;;;;;;;;;5019510;28;20384;-66
2023/08/01 07:23:52;;;;;;;18.63;5.20;;;;;;;;;;5020439;28;20049;-64
2023/08/01 07:27:32;;;;;;;17.48;5.97;;;;;;;;;;5022742;28;20118;-66
2023/08/01 07:30:33;;;;;;;12.88;4.53;;;;;;;;;;5008994;28;20132;-64
2023/08/01 07:33:38;;;;;;;12.55;4.40;;;;;;;;;;5011728;28;20045;-66
2023/08/01 07:37:19;;;;;;;9.80;4.30;;;;;;;;;;5011617;28;20049;-64
2023/08/01 07:40:59;;;;;;;11.60;4.63;;;;;;;;;;5012790;28;20454;-64
2023/08/01 07:44:39;;;;;;;15.77;5.20;;;;;;;;;;5026339;28;20111;-64
2023/08/01 07:48:20;;;;;;;10.30;4.10;;;;;;;;;;5014391;28;20057;-65
2023/08/01 07:52:00;;;;;;;14.63;4.22;;;;;;;;;;5020152;28;20049;-65
2023/08/01 07:55:41;;;;;;;9.55;4.15;;;;;;;;;;5021478;28;20088;-63
2023/08/01 07:59:21;;;;;;;12.27;4.45;;;;;;;;;;5016283;28;20083;-65
2023/08/01 08:03:01;;;;;;;11.93;3.90;;;;;;;;;;5015194;28;20192;-65
2023/08/01 08:06:42;;;;;;;10.90;4.20;;;;;;;;;;5017036;28;20102;-65
2023/08/01 08:10:23;;;;;;;11.77;4.47;;;;;;;;;;5017560;28;20119;-64
2023/08/01 08:14:03;;;;;;;13.45;4.32;;;;;;;;;;5016472;28;20064;-67
2023/08/01 08:17:43;;;;;;;11.13;4.50;;;;;;;;;;5016753;28;20067;-64
2023/08/01 08:21:24;;;;;;;11.18;4.60;;;;;;;;;;5010572;28;20096;-63
2023/08/01 08:25:04;;;;;;;12.60;4.57;;;;;;;;;;5012413;28;20046;-63
2023/08/01 08:28:47;;;;;;;14.30;4.32;;;;;;;;;;5014768;28;20052;-64
2023/08/01 08:32:28;;;;;;;7.80;4.18;;;;;;;;;;5021907;28;20180;-65
2023/08/01 08:36:08;;;;;;;11.40;4.22;;;;;;;;;;5025533;28;20041;-65
2023/08/01 08:39:48;;;;;;;11.20;3.90;;;;;;;;;;5020069;28;20046;-64
2023/08/01 08:43:29;;;;;;;12.05;4.55;;;;;;;;;;5018969;28;20041;-64
2023/08/01 08:47:10;;;;;;;9.43;4.20;;;;;;;;;;5019648;28;20057;-66
2023/08/01 08:50:51;;;;;;;13.85;4.05;;;;;;;;;;5027430;28;20057;-62
2023/08/01 08:54:31;;;;;;;13.85;4.38;;;;;;;;;;5013502;28;20058;-63
2023/08/01 08:58:11;;;;;;;9.40;4.40;;;;;;;;;;5022876;28;20084;-65
2023/08/01 09:01:51;;;;;;;10.15;4.35;;;;;;;;;;5017422;28;20045;-62
2023/08/01 09:05:33;;;;;;;17.17;4.68;;;;;;;;;;5022661;28;20052;-64
2023/08/01 09:09:22;;;;;;;12.02;4.47;;;;;;;;;;5023832;28;20038;-64
2023/08/01 09:13:02;;;;;;;9.80;4.38;;;;;;;;;;5015536;28;20060;-65
2023/08/01 09:16:42;;;;;;;8.63;4.28;;;;;;;;;;5026338;28;20116;-64
2023/08/01 09:20:25;;;;;;;8.38;3.55;;;;;;;;;;5028967;28;20509;-67
2023/08/01 09:24:05;;;;;;;10.20;4.05;;;;;;;;;;5018120;28;20176;-64
2023/08/01 09:27:46;;;;;;;9.10;3.72;;;;;;;;;;5025492;28;20137;-63
2023/08/01 09:31:29;;;;;;;9.27;4.95;;;;;;;;;;5025649;28;20050;-64
2023/08/01 09:35:10;;;;;;;10.88;4.40;;;;;;;;;;5012227;28;20137;-64
2023/08/01 09:38:50;;;;;;;9.73;4.47;;;;;;;;;;5015899;28;20041;-65
2023/08/01 09:42:39;;;;;;;8.13;4.30;;;;;;;;;;5022883;28;20071;-65
2023/08/01 09:46:32;;;;;;;9.18;4.30;;;;;;;;;;5021474;28;20045;-64
2023/08/01 09:50:13;;;;;;;8.70;4.32;;;;;;;;;;5025476;28;20071;-66
2023/08/01 09:53:53;;;;;;;12.70;3.95;;;;;;;;;;5022637;28;20064;-63
2023/08/01 09:57:33;;;;;;;9.90;4.43;;;;;;;;;;5018920;28;20045;-64
2023/08/01 10:01:13;;;;;;;15.43;4.70;;;;;;;;;;5021586;28;20173;-64
2023/08/01 10:04:54;;;;;;;8.95;3.78;;;;;;;;;;5023266;28;20049;-63
2023/08/01 10:08:34;;;;;;;9.13;4.00;;;;;;;;;;5019072;28;20125;-65
2023/08/01 10:12:14;;;;;;;10.65;4.25;;;;;;;;;;5021838;28;20068;-64
2023/08/01 10:15:55;;;;;;;10.93;4.03;;;;;;;;;;5024313;28;20045;-64
2023/08/01 10:19:35;;;;;;;14.32;3.78;;;;;;;;;;5019428;28;20502;-63
2023/08/01 10:23:15;;;;;;;12.25;4.50;;;;;;;;;;5027672;28;20041;-64
2023/08/01 10:26:56;;;;;;;9.30;3.70;;;;;;;;;;5024296;28;20503;-62
2023/08/01 10:30:39;;;;;;;12.05;4.05;;;;;;;;;;5025346;28;20041;-65
2023/08/01 10:34:25;;;;;;;12.73;3.90;;;;;;;;;;5020555;28;20107;-65
2023/08/01 10:38:06;;;;;;;8.65;3.28;;;;;;;;;;5014921;28;20045;-65
2023/08/01 10:41:55;;;;;;;14.38;4.13;;;;;;;;;;5018984;28;20076;-65
2023/08/01 10:45:41;;;;;;;10.50;4.38;;;;;;;;;;5019496;28;20064;-64
2023/08/01 10:49:27;;;;;;;12.43;3.75;;;;;;;;;;5018078;28;20121;-63
2023/08/01 10:53:08;;;;;;;7.15;3.38;;;;;;;;;;5017011;28;20069;-65
2023/08/01 10:56:49;;;;;;;8.27;3.42;;;;;;;;;;5012120;28;20142;-64
2023/08/01 11:00:30;;;;;;;8.85;3.50;;;;;;;;;;5016782;28;20041;-63
2023/08/01 11:04:13;;;;;;;7.22;3.00;;;;;;;;;;5015657;28;20054;-64
2023/08/01 11:07:54;;;;;;;8.85;2.97;;;;;;;;;;5018386;28;20046;-66
2023/08/01 11:11:34;;;;;;;6.20;3.33;;;;;;;;;;5020196;28;20053;-65
2023/08/01 11:15:14;;;;;;;7.43;2.90;;;;;;;;;;5012274;28;20037;-63
2023/08/01 11:19:03;;;;;;;11.88;3.05;;;;;;;;;;5019800;28;20049;-63
2023/08/01 11:22:44;;;;;;;7.78;3.00;;;;;;;;;;5016273;28;20045;-63
2023/08/01 11:26:30;;;;;;;11.35;2.95;;;;;;;;;;5012326;28;20045;-64
2023/08/01 11:30:11;;;;;;;9.15;3.40;;;;;;;;;;5014047;28;20092;-64
2023/08/01 11:33:14;;;;;;;8.63;3.00;;;;;;;;;;5021609;28;20053;-65
2023/08/01 11:36:55;;;;;;;7.97;2.93;;;;;;;;;;5019990;28;20469;-64
2023/08/01 11:40:35;;;;;;;7.97;3.08;;;;;;;;;;5016915;28;20048;-64
2023/08/01 11:44:21;;;;;;;8.05;3.20;;;;;;;;;;5011381;28;20462;-62
2023/08/01 11:48:04;;;;;;;9.25;3.00;;;;;;;;;;5015531;28;20054;-63
2023/08/01 11:51:44;;;;;;;8.63;3.38;;;;;;;;;;5020032;28;20085;-64
2023/08/01 11:55:25;;;;;;;7.43;3.00;;;;;;;;;;5012186;28;20081;-62
2023/08/01 11:58:58;;;;;;;7.55;3.10;;;;;;;;;;5021391;28;20042;-66
2023/08/01 12:02:43;;;;;;;8.25;3.20;;;;;;;;;;5013561;28;20045;-64
2023/08/01 12:06:26;;;;;;;11.55;3.50;;;;;;;;;;5011669;28;20057;-65
2023/08/01 12:10:16;;;;;;;8.63;3.42;;;;;;;;;;5020231;28;20073;-64
2023/08/01 12:13:59;;;;;;;9.07;3.45;;;;;;;;;;5014983;28;20707;-65
2023/08/01 12:17:39;;;;;;;12.10;3.55;;;;;;;;;;5017934;28;20072;-65
2023/08/01 12:21:20;;;;;;;10.07;3.78;;;;;;;;;;5018235;28;20046;-63
2023/08/01 12:25:00;;;;;;;8.27;3.45;;;;;;;;;;5016094;28;20104;-67
2023/08/01 12:28:40;;;;;;;8.52;3.15;;;;;;;;;;5018916;28;20049;-65
2023/08/01 12:32:21;;;;;;;10.18;3.03;;;;;;;;;;5022122;28;20060;-62
2023/08/01 12:36:01;;;;;;;8.13;3.45;;;;;;;;;;5017441;28;20054;-63
2023/08/01 12:39:41;;;;;;;9.35;3.30;;;;;;;;;;5021204;28;20045;-65
2023/08/01 12:43:22;;;;;;;10.57;3.40;;;;;;;;;;5016774;28;20056;-62
2023/08/01 12:47:02;;;;;;;7.05;3.13;;;;;;;;;;5017960;28;20049;-65
2023/08/01 12:50:42;;;;;;;11.73;3.70;;;;;;;;;;5019032;28;20182;-65
2023/08/01 12:54:23;;;;;;;8.85;3.17;;;;;;;;;;5025402;28;20072;-63
2023/08/01 12:58:03;;;;;;;13.13;3.42;;;;;;;;;;5023927;28;20056;-63
2023/08/01 13:01:43;;;;;;;7.45;3.47;;;;;;;;;;5016711;28;20041;-63
2023/08/01 13:05:24;;;;;;;11.32;3.25;;;;;;;;;;5017951;28;20057;-66
2023/08/01 13:09:05;;;;;;;14.02;3.40;;;;;;;;;;5024163;28;20158;-61
2023/08/01 13:12:45;;;;;;;20.70;3.58;;;;;;;;;;5021910;28;20158;-65
2023/08/01 13:16:25;;;;;;;15.40;3.83;;;;;;;;;;5026788;28;20082;-63
2023/08/01 13:20:06;;;;;;;12.77;3.60;;;;;;;;;;5024736;28;20049;-64
2023/08/01 13:23:46;;;;;;;12.82;3.75;;;;;;;;;;5021175;28;20056;-63
2023/08/01 13:27:27;;;;;;;14.68;3.60;;;;;;;;;;5019354;28;20136;-66
2023/08/01 13:31:07;;;;;;;11.75;3.45;;;;;;;;;;5022097;28;20057;-64
2023/08/01 13:34:48;;;;;;;9.90;3.40;;;;;;;;;;5021992;28;20045;-64
2023/08/01 13:37:54;;;;;;;8.65;3.30;;;;;;;;;;5024909;28;20057;-64
2023/08/01 13:41:34;;;;;;;9.60;3.30;;;;;;;;;;5025451;28;20272;-64
2023/08/01 13:45:14;;;;;;;13.50;3.05;;;;;;;;;;5021827;28;20041;-64
2023/08/01 13:48:55;;;;;;;11.27;3.10;;;;;;;;;;5023350;28;20553;-64
2023/08/01 13:52:35;;;;;;;8.15;3.08;;;;;;;;;;5016959;28;22971;-65
2023/08/01 13:56:15;;;;;;;9.25;2.63;;;;;;;;;;5022627;28;20103;-64
2023/08/01 13:59:56;;;;;;;10.70;3.25;;;;;;;;;;5015837;28;20076;-63
2023/08/01 14:03:36;;;;;;;17.73;2.95;;;;;;;;;;5020987;28;20041;-65
2023/08/01 14:07:16;;;;;;;14.40;3.20;;;;;;;;;;5022440;28;20270;-64
2023/08/01 14:10:57;;;;;;;13.32;3.00;;;;;;;;;;5018641;28;20561;-63
2023/08/01 14:14:37;;;;;;;7.13;2.60;;;;;;;;;;5021728;28;20041;-65
2023/08/01 14:18:18;;;;;;;10.07;3.38;;;;;;;;;;5020462;28;20056;-64
2023/08/01 14:21:58;;;;;;;13.55;3.53;;;;;;;;;;5011319;28;20559;-65
2023/08/01 14:25:38;;;;;;;11.35;3.15;;;;;;;;;;5023917;28;20049;-65
2023/08/01 14:28:39;;;;;;;7.45;3.03;;;;;;;;;;5014412;28;20057;-65
2023/08/01 14:31:07;;;;;;;11.55;3.10;;;;;;;;;;5020467;28;20140;-63
2023/08/01 14:33:33;;;;;;;9.52;3.10;;;;;;;;;;5019378;28;20563;-63
2023/08/01 14:35:59;;;;;;;9.60;2.78;;;;;;;;;;5015947;28;20049;-65
2023/08/01 14:38:26;;;;;;;9.10;3.28;;;;;;;;;;5018308;28;20525;-65
2023/08/01 14:40:53;;;;;;;11.05;2.83;;;;;;;;;;5013927;28;20073;-68
2023/08/01 14:43:19;;;;;;;10.45;3.20;;;;;;;;;;5016650;28;20076;-69
2023/08/01 14:45:45;;;;;;;9.25;3.03;;;;;;;;;;5020167;28;20419;-68
2023/08/01 14:48:11;;;;;;;15.48;3.08;;;;;;;;;;5022839;28;20048;-70
2023/08/01 14:50:40;;;;;;;12.02;3.35;;;;;;;;;;5024885;28;20496;-70
2023/08/01 14:53:45;;;;;;;11.27;2.90;;;;;;;;;;5026714;28;20483;-71
2023/08/01 14:57:26;;;;;;;10.48;2.97;;;;;;;;;;5015502;28;20175;-67
2023/08/01 15:01:06;;;;;;;15.02;3.13;;;;;;;;;;5020447;28;20410;-66
2023/08/01 15:04:46;;;;;;;13.90;3.72;;;;;;;;;;5026976;28;20061;-68
2023/08/01 15:07:47;;;;;;;10.80;3.08;;;;;;;;;;5020453;28;20091;-67
2023/08/01 15:10:13;;;;;;;11.10;3.17;;;;;;;;;;5019433;28;20099;-69
2023/08/01 15:12:39;;;;;;;14.00;3.30;;;;;;;;;;5028903;28;20551;-68
2023/08/01 15:15:06;;;;;;;12.73;3.28;;;;;;;;;;5021465;28;20057;-66
2023/08/01 15:18:11;;;;;;;14.02;3.20;;;;;;;;;;5019521;28;20132;-67
2023/08/01 15:21:52;;;;;;;13.60;3.13;;;;;;;;;;5018104;28;20056;-70
2023/08/01 15:25:32;;;;;;;15.32;3.40;;;;;;;;;;5023597;28;20110;-69
2023/08/01 15:29:13;;;;;;;10.10;3.40;;;;;;;;;;5017057;28;20057;-66
2023/08/01 15:32:53;;;;;;;12.45;3.38;;;;;;;;;;5013744;28;20049;-68
2023/08/01 15:36:33;;;;;;;11.32;3.15;;;;;;;;;;5015884;28;20050;-70
2023/08/01 15:39:34;;;;;;;17.77;3.90;;;;;;;;;;5014300;28;20045;-66
2023/08/01 15:42:41;;;;;;;13.43;3.53;;;;;;;;;;5014498;28;20034;-67
2023/08/01 15:46:21;;;;;;;14.93;3.63;;;;;;;;;;5009397;28;20072;-66
2023/08/01 15:49:22;;;;;;;13.40;3.30;;;;;;;;;;5015573;28;20042;-66
2023/08/01 15:51:48;;;;;;;8.57;3.03;;;;;;;;;;5017737;28;20057;-67
2023/08/01 15:54:14;;;;;;;10.05;3.20;;;;;;;;;;5016562;28;20053;-66
2023/08/01 15:57:40;;;;;;;11.63;3.20;;;;;;;;;;5016213;28;20049;-67
2023/08/01 16:01:20;;;;;;;15.80;3.78;;;;;;;;;;5014464;28;20046;-70
2023/08/01 16:05:00;;;;;;;11.65;2.95;;;;;;;;;;5015153;28;20080;-68
2023/08/01 16:08:41;;;;;;;11.68;2.97;;;;;;;;;;5019112;28;20496;-66
2023/08/01 16:12:21;;;;;;;12.68;3.58;;;;;;;;;;5017787;28;20049;-66
2023/08/01 16:16:01;;;;;;;11.27;3.22;;;;;;;;;;5011972;28;20042;-66
2023/08/01 16:19:42;;;;;;;13.68;3.42;;;;;;;;;;5023385;28;20435;-65
2023/08/01 16:23:22;;;;;;;11.63;3.72;;;;;;;;;;5020210;28;20160;-67
2023/08/01 16:27:02;;;;;;;11.70;3.40;;;;;;;;;;5021860;28;20042;-66
2023/08/01 16:30:04;;;;;;;13.25;3.22;;;;;;;;;;5017470;28;20064;-68
2023/08/01 16:32:30;;;;;;;14.13;3.10;;;;;;;;;;5014370;28;20056;-69
2023/08/01 16:34:56;;;;;;;11.23;3.28;;;;;;;;;;5010672;28;20528;-67
2023/08/01 16:37:23;;;;;;;11.10;3.42;;;;;;;;;;5017238;28;20118;-66
2023/08/01 16:39:49;;;;;;;12.95;3.20;;;;;;;;;;5023244;28;20042;-65
2023/08/01 16:42:15;;;;;;;10.70;3.30;;;;;;;;;;5013879;28;20060;-68
2023/08/01 16:44:41;;;;;;;13.95;3.03;;;;;;;;;;5018574;28;20042;-66
2023/08/01 16:47:07;;;;;;;14.52;3.67;;;;;;;;;;5013634;28;20041;-68
2023/08/01 16:50:13;;;;;;;10.32;3.30;;;;;;;;;;5022543;28;20058;-68
2023/08/01 16:53:53;;;;;;;11.05;3.17;;;;;;;;;;5021252;28;20624;-64
2023/08/01 16:57:33;;;;;;;12.88;3.38;;;;;;;;;;5015360;28;20050;-65
2023/08/01 17:01:14;;;;;;;7.78;3.20;;;;;;;;;;5023030;28;20466;-66
2023/08/01 17:04:54;;;;;;;12.30;3.13;;;;;;;;;;5018572;28;20045;-66
2023/08/01 17:08:34;;;;;;;13.75;3.55;;;;;;;;;;5022764;28;20399;-65
2023/08/01 17:12:15;;;;;;;11.82;3.00;;;;;;;;;;5018248;28;20465;-68
2023/08/01 17:15:55;;;;;;;8.55;3.10;;;;;;;;;;5015797;28;20049;-66
2023/08/01 17:19:36;;;;;;;16.63;3.38;;;;;;;;;;5013651;28;20041;-66
2023/08/01 17:23:16;;;;;;;11.00;3.10;;;;;;;;;;5018245;28;20454;-66
2023/08/01 17:26:56;;;;;;;15.60;3.28;;;;;;;;;;5022338;28;20095;-65
2023/08/01 17:29:57;;;;;;;12.52;3.53;;;;;;;;;;5015464;28;20064;-67
2023/08/01 17:33:03;;;;;;;10.73;2.80;;;;;;;;;;5013886;28;20053;-68
2023/08/01 17:36:44;;;;;;;16.33;3.50;;;;;;;;;;5013752;28;20045;-68
2023/08/01 17:40:24;;;;;;;13.00;3.65;;;;;;;;;;5019844;28;20048;-66
2023/08/01 17:44:05;;;;;;;12.05;3.90;;;;;;;;;;5022905;28;20119;-67
2023/08/01 17:47:45;;;;;;;13.85;3.63;;;;;;;;;;5028470;28;20068;-68
2023/08/01 17:51:25;;;;;;;10.73;3.45;;;;;;;;;;5024620;28;20514;-67
2023/08/01 17:55:06;;;;;;;11.50;3.88;;;;;;;;;;5019500;28;20168;-67
2023/08/01 17:58:46;;;;;;;10.23;3.75;;;;;;;;;;5027866;28;20499;-68
2023/08/01 18:02:27;;;;;;;14.05;4.00;;;;;;;;;;5024066;28;20100;-67
2023/08/01 18:06:07;;;;;;;12.05;3.80;;;;;;;;;;5027302;28;20406;-69
2023/08/01 18:09:47;;;;;;;10.00;3.83;;;;;;;;;;5025725;28;20088;-66
2023/08/01 18:13:27;;;;;;;14.43;4.20;;;;;;;;;;5025734;28;20081;-68
2023/08/01 18:17:07;;;;;;;9.95;3.72;;;;;;;;;;5020371;28;20049;-67
2023/08/01 18:20:48;;;;;;;12.50;3.58;;;;;;;;;;5027281;28;20434;-67
2023/08/01 18:24:28;;;;;;;9.75;3.80;;;;;;;;;;5022704;28;20402;-67
2023/08/01 18:28:09;;;;;;;11.85;3.45;;;;;;;;;;5016285;28;20423;-67
2023/08/01 18:31:49;;;;;;;14.07;3.67;;;;;;;;;;5026384;28;20104;-67
2023/08/01 18:35:29;;;;;;;11.38;3.53;;;;;;;;;;5028727;28;20925;-67
2023/08/01 18:39:10;;;;;;;13.10;4.60;;;;;;;;;;5025055;28;20124;-66
2023/08/01 18:42:50;;;;;;;13.32;4.03;;;;;;;;;;5026605;28;20100;-67
2023/08/01 18:46:34;;;;;;;12.73;3.50;;;;;;;;;;5020594;28;20060;-67
2023/08/01 18:50:14;;;;;;;12.90;3.55;;;;;;;;;;5014884;28;20186;-69
2023/08/01 18:53:55;;;;;;;7.43;3.63;;;;;;;;;;5022042;28;20053;-69
2023/08/01 18:57:36;;;;;;;12.07;3.92;;;;;;;;;;5013170;28;20451;-67
2023/08/01 19:01:17;;;;;;;14.73;4.13;;;;;;;;;;5016835;28;20121;-68
2023/08/01 19:04:56;;;;;;;16.52;3.85;;;;;;;;;;5029103;28;20049;-67
2023/08/01 19:08:37;;;;;;;15.25;4.20;;;;;;;;;;5013086;28;20721;-67
2023/08/01 19:12:17;;;;;;;14.70;4.00;;;;;;;;;;5011413;28;20061;-66
2023/08/01 19:15:58;;;;;;;14.15;4.10;;;;;;;;;;5015466;28;20072;-68
2023/08/01 19:19:38;;;;;;;11.38;3.60;;;;;;;;;;5018239;28;20050;-69
2023/08/01 19:23:19;;;;;;;11.88;3.97;;;;;;;;;;5024025;28;20041;-68
2023/08/01 19:26:59;;;;;;;18.42;4.03;;;;;;;;;;5020868;28;20052;-69
2023/08/01 19:30:40;;;;;;;11.73;4.00;;;;;;;;;;5018349;28;20125;-68
2023/08/01 19:33:41;;;;;;;13.80;4.57;;;;;;;;;;5011383;28;20074;-68
2023/08/01 19:36:47;;;;;;;17.58;4.22;;;;;;;;;;5018569;28;20046;-67
2023/08/01 19:40:27;;;;;;;17.67;4.82;;;;;;;;;;5013309;28;20034;-66
2023/08/01 19:44:07;;;;;;;13.95;4.30;;;;;;;;;;5025668;28;20092;-68
2023/08/01 19:47:48;;;;;;;10.85;3.97;;;;;;;;;;5024030;28;20156;-67
2023/08/01 19:51:28;;;;;;;12.32;4.28;;;;;;;;;;5024124;28;20067;-67
2023/08/01 19:55:08;;;;;;;12.10;4.25;;;;;;;;;;5023914;28;20042;-67
2023/08/01 19:58:49;;;;;;;12.93;4.55;;;;;;;;;;5020050;28;20053;-69
2023/08/01 20:02:29;;;;;;;16.60;4.30;;;;;;;;;;5022506;28;20045;-68
2023/08/01 20:06:09;;;;;;;18.52;4.70;;;;;;;;;;5015080;28;20128;-69
2023/08/01 20:09:49;;;;;;;12.63;4.38;;;;;;;;;;5020347;28;20087;-68
2023/08/01 20:13:30;;;;;;;9.98;4.15;;;;;;;;;;5019530;28;20209;-68
2023/08/01 20:17:11;;;;;;;13.32;4.45;;;;;;;;;;5014863;28;20054;-67
2023/08/01 20:20:52;;;;;;;12.90;4.43;;;;;;;;;;5011386;28;20136;-68
2023/08/01 20:24:32;;;;;;;11.27;4.05;;;;;;;;;;5007974;28;20046;-67
2023/08/01 20:28:13;;;;;;;19.02;4.63;;;;;;;;;;5017317;28;20053;-68
2023/08/01 20:31:53;;;;;;;12.07;3.38;;;;;;;;;;5022534;28;20124;-68
2023/08/01 20:35:49;;;;;;;11.88;4.10;;;;;;;;;;5021909;28;20128;-67
2023/08/01 20:39:29;;;;;;;10.40;3.70;;;;;;;;;;5018522;28;20037;-67
2023/08/01 20:43:10;;;;;;;8.55;3.92;;;;;;;;;;5013290;28;20049;-68
2023/08/01 20:46:50;;;;;;;13.00;3.92;;;;;;;;;;5021621;28;20057;-67